Time;durP1;ratioP1;P1;durP2;ratioP2;P2;SDS_P1;SDS_P2;PMS_P1;PMS_P2;Temp;Humidity;BMP_temperature;BMP_pressure;BME280_temperature;BME280_humidity;BME280_pressure;Samples;Min_cycle;Max_cycle;Signal;HPM_P1;HPM_P2
2022/01/09 00:03:57;;;;;;;1.92;0.70;;;3.60;99.90;;;;;;7189155;32;20178;-77
2022/01/09 00:07:59;;;;;;;1.62;0.80;;;3.60;99.90;;;;;;7170717;32;20696;-77
2022/01/09 00:12:00;;;;;;;1.42;0.80;;;3.60;99.90;;;;;;7190892;32;20180;-79
2022/01/09 00:16:02;;;;;;;1.95;0.80;;;3.60;99.90;;;;;;7174237;32;20540;-78
2022/01/09 00:20:06;;;;;;;1.42;0.60;;;3.60;99.90;;;;;;7191279;32;20502;-78
2022/01/09 00:24:08;;;;;;;1.75;0.75;;;3.70;99.90;;;;;;7173993;32;20180;-77
2022/01/09 00:28:10;;;;;;;1.37;0.70;;;3.70;99.90;;;;;;7191349;32;20118;-78
2022/01/09 00:32:12;;;;;;;1.90;0.75;;;3.60;99.90;;;;;;7172403;32;20518;-78
2022/01/09 00:36:14;;;;;;;1.27;0.80;;;3.70;99.90;;;;;;7187801;32;20171;-78
2022/01/09 00:40:17;;;;;;;1.42;0.65;;;3.70;99.90;;;;;;7189822;32;20557;-77
2022/01/09 00:44:19;;;;;;;0.77;0.40;;;3.70;99.90;;;;;;7183958;32;20143;-77
2022/01/09 00:48:20;;;;;;;2.17;0.60;;;3.80;99.90;;;;;;7184995;32;20815;-77
2022/01/09 00:52:22;;;;;;;1.30;0.50;;;3.80;99.90;;;;;;7185705;32;20194;-78
2022/01/09 00:56:24;;;;;;;1.12;0.70;;;3.80;99.90;;;;;;7173434;32;20275;-78
2022/01/09 01:00:26;;;;;;;1.15;0.40;;;3.80;99.90;;;;;;7191575;32;20582;-78
2022/01/09 01:04:28;;;;;;;1.37;0.47;;;3.80;99.90;;;;;;7187929;32;20138;-77
2022/01/09 01:08:29;;;;;;;0.60;0.40;;;3.90;99.90;;;;;;7181797;32;20125;-78
2022/01/09 01:12:32;;;;;;;1.45;0.82;;;3.80;99.90;;;;;;7185969;32;20133;-78
2022/01/09 01:16:34;;;;;;;0.70;0.57;;;3.80;99.90;;;;;;7175093;32;20203;-78
2022/01/09 01:20:36;;;;;;;1.08;0.70;;;3.80;99.90;;;;;;7176732;32;20125;-78
2022/01/09 01:24:39;;;;;;;1.92;0.50;;;3.90;99.90;;;;;;7174688;32;20139;-77
2022/01/09 01:28:49;;;;;;;0.90;0.40;;;3.90;99.90;;;;;;7191889;32;20113;-78
2022/01/09 01:32:50;;;;;;;0.82;0.47;;;4.00;99.90;;;;;;7198101;32;20248;-78
2022/01/09 01:36:52;;;;;;;0.80;0.50;;;3.90;99.90;;;;;;7204922;32;20140;-78
2022/01/09 01:40:54;;;;;;;1.33;0.80;;;4.00;99.90;;;;;;7176254;32;20519;-78
2022/01/09 01:44:56;;;;;;;0.90;0.70;;;3.90;99.90;;;;;;7193427;32;20472;-78
2022/01/09 01:48:58;;;;;;;2.45;1.00;;;4.00;99.90;;;;;;7186046;33;20114;-78
2022/01/09 01:52:59;;;;;;;1.35;1.00;;;4.00;99.90;;;;;;7185592;32;20200;-78
2022/01/09 01:57:03;;;;;;;1.35;0.90;;;4.00;99.90;;;;;;7183099;33;20189;-78
2022/01/09 02:01:05;;;;;;;2.60;0.88;;;4.10;99.90;;;;;;7198582;33;20287;-78
2022/01/09 02:05:07;;;;;;;3.20;1.20;;;4.10;99.90;;;;;;7188436;32;20121;-78
2022/01/09 02:09:09;;;;;;;3.30;1.23;;;4.10;99.90;;;;;;7193127;32;20143;-78
2022/01/09 02:13:11;;;;;;;1.60;1.30;;;4.10;99.90;;;;;;7182742;32;20140;-78
2022/01/09 02:17:21;;;;;;;6.72;1.37;;;4.10;99.90;;;;;;7191970;32;20162;-78
2022/01/09 02:21:23;;;;;;;2.08;1.45;;;4.20;99.90;;;;;;7184710;32;20577;-79
2022/01/09 02:25:26;;;;;;;2.50;1.90;;;4.30;99.90;;;;;;7186767;32;20971;-78
2022/01/09 02:29:28;;;;;;;2.58;1.77;;;4.40;99.90;;;;;;7191463;32;20129;-79
2022/01/09 02:33:29;;;;;;;2.95;1.10;;;4.50;99.90;;;;;;7202448;32;20173;-79
2022/01/09 02:37:31;;;;;;;2.72;1.08;;;4.50;99.90;;;;;;7193323;32;20525;-78
2022/01/09 02:41:33;;;;;;;4.53;2.78;;;4.50;99.90;;;;;;7193018;32;20548;-79
2022/01/09 02:45:36;;;;;;;7.15;3.40;;;4.40;99.90;;;;;;7195715;32;20274;-79
2022/01/09 02:49:38;;;;;;;9.55;5.00;;;4.40;99.90;;;;;;7196724;32;20632;-78
2022/01/09 02:53:45;;;;;;;13.10;6.07;;;4.40;99.90;;;;;;7184374;32;20121;-79
2022/01/09 02:58:07;;;;;;;9.17;5.50;;;4.40;99.90;;;;;;7202906;32;20132;-79
2022/01/09 03:02:08;;;;;;;9.65;5.00;;;4.50;99.90;;;;;;7196960;32;20854;-78
2022/01/09 03:06:10;;;;;;;6.90;2.58;;;4.60;99.90;;;;;;7196723;32;20117;-78
2022/01/09 03:10:15;;;;;;;16.42;4.37;;;4.60;99.90;;;;;;7187568;32;20175;-78
2022/01/09 03:14:16;;;;;;;13.73;4.50;;;4.50;99.90;;;;;;7187951;32;20187;-79
2022/01/09 03:18:18;;;;;;;19.45;5.50;;;4.60;99.90;;;;;;7185853;32;20323;-78
2022/01/09 03:22:20;;;;;;;19.35;5.72;;;4.60;99.90;;;;;;7204076;32;20765;-79
2022/01/09 03:26:22;;;;;;;16.00;4.78;;;4.60;99.90;;;;;;7193137;32;20138;-79
2022/01/09 03:30:24;;;;;;;14.30;3.87;;;4.60;99.90;;;;;;7204320;32;20582;-79
2022/01/09 03:34:26;;;;;;;11.98;2.22;;;4.60;99.90;;;;;;7202256;32;20513;-78
2022/01/09 03:38:28;;;;;;;16.50;2.40;;;4.60;99.90;;;;;;7204936;32;20124;-77
2022/01/09 03:42:29;;;;;;;9.95;2.28;;;4.70;99.90;;;;;;7193398;32;20117;-78
2022/01/09 03:46:31;;;;;;;16.08;3.50;;;4.70;99.90;;;;;;7195963;32;20194;-79
2022/01/09 03:50:33;;;;;;;23.00;5.93;;;4.70;99.90;;;;;;7178639;32;20235;-79
2022/01/09 03:54:38;;;;;;;19.90;5.20;;;4.70;99.90;;;;;;7200592;32;20919;-79
2022/01/09 03:58:40;;;;;;;18.23;3.15;;;4.80;99.90;;;;;;7197862;32;20188;-78
2022/01/09 04:02:43;;;;;;;12.65;2.35;;;4.90;99.90;;;;;;7172177;32;20117;-79
2022/01/09 04:06:48;;;;;;;21.58;4.32;;;4.90;99.90;;;;;;7187494;32;20287;-77
2022/01/09 04:10:50;;;;;;;21.77;4.20;;;4.80;99.90;;;;;;7202704;32;20717;-77
2022/01/09 04:14:52;;;;;;;26.73;4.50;;;4.90;99.90;;;;;;7182520;32;20121;-77
2022/01/09 04:18:54;;;;;;;20.30;3.75;;;4.90;99.90;;;;;;7191304;32;20147;-77
2022/01/09 04:22:56;;;;;;;22.55;2.95;;;4.90;99.90;;;;;;7188403;32;20238;-79
2022/01/09 04:26:58;;;;;;;23.05;2.70;;;4.90;99.90;;;;;;7180688;32;21280;-77
2022/01/09 04:31:00;;;;;;;24.77;3.72;;;5.00;99.90;;;;;;7186054;32;20148;-77
2022/01/09 04:35:02;;;;;;;28.80;3.62;;;5.00;99.90;;;;;;7175880;32;20244;-77
2022/01/09 04:39:04;;;;;;;24.48;4.47;;;5.10;99.90;;;;;;7175352;32;20184;-77
2022/01/09 04:43:08;;;;;;;24.83;3.25;;;5.10;99.90;;;;;;7174019;32;20224;-77
2022/01/09 04:47:14;;;;;;;25.25;3.50;;;5.10;99.90;;;;;;7187272;32;20136;-78
2022/01/09 04:51:16;;;;;;;28.87;4.57;;;5.10;99.90;;;;;;7194887;32;20208;-77
2022/01/09 04:55:18;;;;;;;31.17;4.75;;;5.10;99.90;;;;;;7188938;32;20143;-78
2022/01/09 04:59:20;;;;;;;27.75;4.55;;;5.10;99.90;;;;;;7204282;32;20105;-77
2022/01/09 05:03:22;;;;;;;23.98;4.37;;;5.10;99.90;;;;;;7185942;32;20121;-76
2022/01/09 05:07:24;;;;;;;31.75;5.22;;;5.20;99.90;;;;;;7173426;32;20109;-78
2022/01/09 05:11:26;;;;;;;16.48;2.92;;;5.20;99.90;;;;;;7190670;32;20937;-77
2022/01/09 05:15:28;;;;;;;20.77;3.65;;;5.20;99.90;;;;;;7190545;32;20118;-76
2022/01/09 05:19:32;;;;;;;31.10;4.10;;;5.20;99.90;;;;;;7172483;32;20117;-77
2022/01/09 05:23:34;;;;;;;20.23;3.80;;;5.10;99.90;;;;;;7173440;32;20142;-76
2022/01/09 05:27:36;;;;;;;24.90;3.75;;;5.10;99.90;;;;;;7176383;32;20116;-77
2022/01/09 05:31:39;;;;;;;18.40;3.80;;;5.10;99.90;;;;;;7184079;32;20133;-77
2022/01/09 05:35:40;;;;;;;27.10;3.70;;;5.10;99.90;;;;;;7202813;32;20712;-77
2022/01/09 05:39:42;;;;;;;19.48;3.22;;;5.00;99.90;;;;;;7177514;32;20113;-76
2022/01/09 05:43:44;;;;;;;22.45;3.30;;;5.00;99.90;;;;;;7188170;32;20172;-76
2022/01/09 05:47:46;;;;;;;15.18;2.80;;;5.00;99.90;;;;;;7187401;33;20208;-76
2022/01/09 05:51:48;;;;;;;19.12;3.45;;;5.00;99.90;;;;;;7188648;33;20114;-78
2022/01/09 05:55:50;;;;;;;15.35;2.58;;;5.00;99.90;;;;;;7183542;33;20219;-77
2022/01/09 05:59:52;;;;;;;19.80;3.00;;;5.00;99.90;;;;;;7173128;33;20203;-78
2022/01/09 06:03:54;;;;;;;21.15;2.85;;;5.00;99.90;;;;;;7199737;32;20211;-78
2022/01/09 06:07:55;;;;;;;9.40;2.40;;;4.90;99.90;;;;;;7188791;33;20530;-77
2022/01/09 06:11:57;;;;;;;15.98;3.22;;;4.90;99.90;;;;;;7182507;32;20582;-77
2022/01/09 06:15:59;;;;;;;15.32;2.33;;;4.90;99.90;;;;;;7177148;33;20198;-77
2022/01/09 06:20:01;;;;;;;18.98;3.05;;;4.90;99.90;;;;;;7191257;33;20177;-77
2022/01/09 06:24:03;;;;;;;15.93;2.33;;;4.80;99.90;;;;;;7185780;33;20114;-77
2022/01/09 06:28:04;;;;;;;14.02;2.70;;;4.80;99.90;;;;;;7187088;33;20204;-77
2022/01/09 06:32:07;;;;;;;15.27;2.60;;;4.80;99.90;;;;;;7186240;33;20228;-76
2022/01/09 06:36:08;;;;;;;15.52;2.03;;;4.70;99.90;;;;;;7186380;33;20219;-76
2022/01/09 06:40:11;;;;;;;16.60;2.15;;;4.70;99.90;;;;;;7197051;32;20117;-77
2022/01/09 06:44:12;;;;;;;19.73;2.50;;;4.70;99.90;;;;;;7190001;33;20195;-77
2022/01/09 06:48:14;;;;;;;12.93;2.10;;;4.60;99.90;;;;;;7190067;33;20129;-77
2022/01/09 06:52:16;;;;;;;16.37;2.65;;;4.70;99.90;;;;;;7203715;32;20264;-77
2022/01/09 06:56:18;;;;;;;10.73;2.17;;;4.60;99.90;;;;;;7188968;32;20126;-76
2022/01/09 07:00:21;;;;;;;11.12;1.90;;;4.60;99.90;;;;;;7165186;32;20626;-77
2022/01/09 07:04:22;;;;;;;12.37;1.90;;;4.60;99.90;;;;;;7195115;32;20105;-77
2022/01/09 07:08:26;;;;;;;9.88;1.87;;;4.60;99.90;;;;;;7190080;32;20120;-77
2022/01/09 07:12:28;;;;;;;12.00;1.80;;;4.60;99.90;;;;;;7181486;32;20164;-77
2022/01/09 07:16:30;;;;;;;15.27;2.08;;;4.50;99.90;;;;;;7179467;32;20116;-78
2022/01/09 07:20:31;;;;;;;13.25;1.40;;;4.60;99.90;;;;;;7185088;32;20121;-76
2022/01/09 07:24:34;;;;;;;11.45;2.12;;;4.50;99.90;;;;;;7197466;32;20121;-77
2022/01/09 07:28:36;;;;;;;8.65;1.73;;;4.50;99.90;;;;;;7181743;32;20147;-77
2022/01/09 07:32:40;;;;;;;12.57;1.90;;;4.50;99.90;;;;;;7183589;32;20571;-76
2022/01/09 07:36:42;;;;;;;12.18;1.67;;;4.50;99.90;;;;;;7193903;32;20259;-77
2022/01/09 07:40:44;;;;;;;6.97;1.75;;;4.50;99.90;;;;;;7191768;32;20329;-77
2022/01/09 07:44:45;;;;;;;8.60;2.10;;;4.40;99.90;;;;;;7188679;32;20215;-77
2022/01/09 07:48:48;;;;;;;13.32;2.20;;;4.50;99.90;;;;;;7180093;32;20208;-77
2022/01/09 07:52:50;;;;;;;14.90;2.35;;;4.50;99.90;;;;;;7201302;32;20683;-77
2022/01/09 07:56:52;;;;;;;11.57;2.17;;;4.60;99.90;;;;;;7186780;32;20189;-78
2022/01/09 08:00:54;;;;;;;15.18;3.47;;;4.50;99.90;;;;;;7195690;32;20164;-79
2022/01/09 08:04:56;;;;;;;15.52;2.15;;;4.60;99.90;;;;;;7181087;32;20132;-78
2022/01/09 08:08:57;;;;;;;12.23;2.47;;;4.60;99.90;;;;;;7187200;32;20659;-78
2022/01/09 08:13:00;;;;;;;15.25;2.10;;;4.60;99.90;;;;;;7190011;32;20136;-76
2022/01/09 08:17:02;;;;;;;17.80;2.58;;;4.50;99.90;;;;;;7184715;32;20139;-77
2022/01/09 08:21:04;;;;;;;15.02;2.72;;;4.50;99.90;;;;;;7181657;32;20235;-77
2022/01/09 08:25:06;;;;;;;15.70;1.75;;;4.60;99.90;;;;;;7166817;32;20469;-77
2022/01/09 08:29:08;;;;;;;14.32;2.20;;;4.60;99.90;;;;;;7201943;32;20251;-76
2022/01/09 08:33:10;;;;;;;10.73;2.00;;;4.60;99.90;;;;;;7163790;32;20204;-77
2022/01/09 08:37:12;;;;;;;15.45;2.28;;;4.60;99.90;;;;;;7192585;32;20756;-76
2022/01/09 08:41:14;;;;;;;15.98;2.85;;;4.60;99.90;;;;;;7188728;32;20171;-75
2022/01/09 08:45:17;;;;;;;13.02;3.17;;;4.60;99.90;;;;;;7186993;32;20212;-76
2022/01/09 08:49:19;;;;;;;16.12;2.22;;;4.70;99.90;;;;;;7199872;32;20188;-76
2022/01/09 08:53:21;;;;;;;14.85;2.05;;;4.70;99.90;;;;;;7200777;32;20253;-76
2022/01/09 08:57:25;;;;;;;11.23;1.92;;;4.70;99.90;;;;;;7203032;32;20139;-76
2022/01/09 09:01:26;;;;;;;13.75;1.90;;;4.70;99.90;;;;;;7188845;32;20683;-76
2022/01/09 09:05:28;;;;;;;11.18;2.45;;;4.70;99.90;;;;;;7200250;32;20129;-75
2022/01/09 09:09:30;;;;;;;11.48;1.50;;;4.80;99.90;;;;;;7188146;32;20141;-76
2022/01/09 09:13:32;;;;;;;9.60;1.65;;;4.80;99.90;;;;;;7187595;32;20177;-76
2022/01/09 09:17:35;;;;;;;12.60;1.60;;;4.80;99.90;;;;;;7188346;32;20569;-76
2022/01/09 09:21:37;;;;;;;11.60;2.15;;;4.80;99.90;;;;;;7181349;32;20113;-76
2022/01/09 09:25:39;;;;;;;15.82;2.70;;;4.90;99.90;;;;;;7202199;32;20158;-76
2022/01/09 09:29:41;;;;;;;12.75;2.45;;;5.10;99.90;;;;;;7189337;32;20113;-77
2022/01/09 09:33:43;;;;;;;16.27;2.35;;;5.10;99.90;;;;;;7192344;32;22096;-78
2022/01/09 09:37:45;;;;;;;10.65;2.40;;;5.00;99.90;;;;;;7187605;32;20703;-78
2022/01/09 09:41:48;;;;;;;9.77;1.75;;;5.10;99.90;;;;;;7194095;32;20180;-76
2022/01/09 09:45:51;;;;;;;12.98;2.25;;;5.10;99.90;;;;;;7191247;32;20199;-77
2022/01/09 09:49:53;;;;;;;9.25;1.52;;;5.30;99.90;;;;;;7194122;33;20223;-77
2022/01/09 09:53:55;;;;;;;16.83;2.85;;;5.20;99.90;;;;;;7187013;33;20148;-78
2022/01/09 09:57:58;;;;;;;12.57;2.10;;;5.10;99.90;;;;;;7178503;33;20557;-77
2022/01/09 10:02:00;;;;;;;15.48;2.45;;;5.00;99.90;;;;;;7170771;33;20117;-77
2022/01/09 10:06:02;;;;;;;12.30;2.33;;;5.00;99.90;;;;;;7193049;33;20121;-78
2022/01/09 10:10:10;;;;;;;13.20;3.05;;;5.10;99.90;;;;;;7187679;33;20125;-77
2022/01/09 10:14:15;;;;;;;7.85;1.98;;;5.00;99.90;;;;;;7189184;33;20174;-77
2022/01/09 10:18:47;;;;;;;9.75;2.30;;;5.00;99.90;;;;;;7177393;33;20118;-78
2022/01/09 10:22:54;;;;;;;9.82;2.90;;;5.00;99.90;;;;;;7201981;33;20113;-77
2022/01/09 10:26:56;;;;;;;13.18;2.28;;;5.00;99.90;;;;;;7184492;32;20266;-78
2022/01/09 10:30:59;;;;;;;11.38;3.05;;;5.00;99.90;;;;;;7186017;32;20140;-79
2022/01/09 10:35:19;;;;;;;10.88;2.72;;;5.20;99.90;;;;;;7203388;32;20154;-78
2022/01/09 10:39:30;;;;;;;10.68;3.20;;;5.30;99.90;;;;;;7191323;32;20613;-78
2022/01/09 10:43:38;;;;;;;11.85;3.10;;;5.30;99.90;;;;;;7173968;32;20121;-78
2022/01/09 10:47:39;;;;;;;7.90;3.35;;;5.30;99.90;;;;;;7190349;32;20140;-78
2022/01/09 10:51:42;;;;;;;10.80;3.87;;;5.20;99.90;;;;;;7176190;32;20122;-78
2022/01/09 10:55:46;;;;;;;9.90;3.30;;;5.10;99.90;;;;;;7186454;32;20608;-78
2022/01/09 10:59:48;;;;;;;13.50;3.83;;;5.20;99.90;;;;;;7192176;32;20129;-77
2022/01/09 11:03:55;;;;;;;13.27;3.03;;;5.50;99.90;;;;;;7185417;32;20163;-75
2022/01/09 11:07:57;;;;;;;;;;;5.50;99.90;;;;;;7183721;32;20648;-75
2022/01/09 11:12:01;;;;;;;12.05;3.17;;;5.40;99.90;;;;;;7202574;32;20391;-76
2022/01/09 11:20:25;;;;;;;11.50;2.85;;;5.30;99.90;;;;;;7209884;32;20178;-79
2022/01/09 11:24:52;;;;;;;13.90;2.80;;;5.30;99.90;;;;;;7187697;32;20268;-77
2022/01/09 11:28:55;;;;;;;5.95;2.45;;;5.30;99.90;;;;;;7174832;32;20187;-76
2022/01/09 11:33:15;;;;;;;5.82;2.25;;;5.30;99.90;;;;;;7195717;32;20739;-77
2022/01/09 11:37:25;;;;;;;6.62;1.73;;;5.40;99.90;;;;;;7193072;32;20215;-77
2022/01/09 11:41:30;;;;;;;9.57;2.62;;;5.50;99.90;;;;;;7191349;32;20257;-77
2022/01/09 11:45:45;;;;;;;8.18;2.05;;;5.50;99.90;;;;;;7193634;32;20125;-76
2022/01/09 11:49:53;;;;;;;10.73;3.90;;;5.50;99.90;;;;;;7180270;32;20200;-77
2022/01/09 11:54:04;;;;;;;12.90;3.37;;;5.60;99.90;;;;;;7189833;32;20121;-76
2022/01/09 11:58:09;;;;;;;9.10;2.70;;;5.60;99.90;;;;;;7187424;32;20460;-75
2022/01/09 12:02:17;;;;;;;7.95;2.92;;;5.60;99.90;;;;;;7197801;32;21367;-76
2022/01/09 12:06:18;;;;;;;11.45;2.30;;;5.60;99.90;;;;;;7196189;32;20635;-76
2022/01/09 12:10:35;;;;;;;9.30;2.80;;;5.60;99.90;;;;;;7202121;32;20183;-76
2022/01/09 12:14:55;;;;;;;9.37;2.63;;;5.60;99.90;;;;;;7194958;32;20304;-76
2022/01/09 12:18:58;;;;;;;7.80;2.22;;;5.60;99.90;;;;;;7185725;32;20617;-76
2022/01/09 12:23:02;;;;;;;10.20;3.15;;;5.80;99.90;;;;;;7174309;32;20223;-75
2022/01/09 12:28:18;;;;;;;11.80;3.58;;;5.80;99.90;;;;;;7179200;32;20425;-76
2022/01/09 12:32:49;;;;;;;11.43;3.03;;;5.60;99.90;;;;;;7184920;32;20179;-76
2022/01/09 12:36:55;;;;;;;13.70;4.60;;;5.60;99.90;;;;;;7180871;32;20313;-76
2022/01/09 12:41:08;;;;;;;14.48;4.07;;;5.70;99.90;;;;;;7183591;32;20139;-76
2022/01/09 12:45:10;;;;;;;14.23;3.47;;;5.80;99.90;;;;;;7188610;32;20199;-76
2022/01/09 12:49:14;;;;;;;10.85;3.58;;;5.90;99.90;;;;;;7172084;32;20113;-77
2022/01/09 12:53:28;;;;;;;12.52;3.40;;;5.80;99.90;;;;;;7185218;32;20354;-76
2022/01/09 12:57:29;;;;;;;10.60;3.30;;;5.70;99.90;;;;;;7184914;32;20719;-76
2022/01/09 13:01:39;;;;;;;13.35;4.18;;;5.60;99.90;;;;;;7177850;32;20155;-77
2022/01/09 13:05:41;;;;;;;17.40;3.78;;;5.60;99.90;;;;;;7185280;32;20297;-77
2022/01/09 13:09:42;;;;;;;10.75;3.25;;;5.70;99.90;;;;;;7170780;32;20165;-78
2022/01/09 13:13:47;;;;;;;11.12;3.45;;;5.90;99.90;;;;;;7180496;32;20218;-77
2022/01/09 13:17:49;;;;;;;6.45;2.80;;;6.00;99.90;;;;;;7181008;32;20314;-77
2022/01/09 13:21:52;;;;;;;12.55;2.70;;;6.10;99.90;;;;;;7187907;32;20135;-78
2022/01/09 13:25:54;;;;;;;12.23;2.60;;;6.10;99.90;;;;;;7179065;32;20534;-77
2022/01/09 13:29:56;;;;;;;11.85;3.05;;;6.20;99.90;;;;;;7183818;32;20128;-77
2022/01/09 13:34:06;;;;;;;8.90;2.37;;;6.20;99.90;;;;;;7189277;32;20189;-77
2022/01/09 13:38:08;;;;;;;8.98;2.62;;;6.30;99.90;;;;;;7184939;32;20310;-77
2022/01/09 13:42:12;;;;;;;12.50;1.83;;;6.30;99.90;;;;;;7189930;32;20114;-78
2022/01/09 13:46:14;;;;;;;8.90;2.12;;;6.40;99.90;;;;;;7187521;32;20117;-78
2022/01/09 13:50:18;;;;;;;7.00;2.40;;;6.40;99.90;;;;;;7187818;33;20101;-77
2022/01/09 13:54:22;;;;;;;8.70;2.67;;;6.30;99.90;;;;;;7207992;33;20591;-77
2022/01/09 13:58:24;;;;;;;8.10;2.10;;;6.10;99.90;;;;;;7184308;33;20177;-78
2022/01/09 14:02:36;;;;;;;4.72;1.50;;;6.20;99.90;;;;;;7194504;32;20120;-76
2022/01/09 14:06:59;;;;;;;8.80;1.80;;;6.60;99.90;;;;;;7213206;32;20168;-75
2022/01/09 14:11:06;;;;;;;7.12;1.70;;;6.50;99.90;;;;;;7219272;32;20121;-76
2022/01/09 14:15:20;;;;;;;8.48;2.75;;;6.60;99.90;;;;;;7198236;32;20220;-76
2022/01/09 14:19:22;;;;;;;8.88;1.95;;;7.00;99.90;;;;;;7187560;32;20175;-76
2022/01/09 14:23:31;;;;;;;7.40;2.10;;;6.90;99.90;;;;;;7201872;32;20121;-77
2022/01/09 14:27:36;;;;;;;5.55;1.90;;;6.80;99.90;;;;;;7196549;32;20174;-78
2022/01/09 14:31:38;;;;;;;8.07;2.12;;;6.70;99.90;;;;;;7198636;32;20877;-78
2022/01/09 14:35:50;;;;;;;5.45;1.65;;;6.50;99.90;;;;;;7204216;32;20143;-77
2022/01/09 14:39:52;;;;;;;9.90;2.37;;;6.40;99.90;;;;;;7202952;32;20223;-77
2022/01/09 14:43:55;;;;;;;6.30;2.42;;;6.30;99.90;;;;;;7191736;32;20117;-77
2022/01/09 14:47:57;;;;;;;7.70;3.30;;;6.10;99.90;;;;;;7188188;32;20151;-78
2022/01/09 14:51:59;;;;;;;8.70;2.60;;;6.00;99.90;;;;;;7195400;32;20136;-77
2022/01/09 14:56:01;;;;;;;9.20;2.87;;;5.80;99.90;;;;;;7188773;32;20141;-77
2022/01/09 15:00:06;;;;;;;8.40;2.75;;;5.80;99.90;;;;;;7179603;32;20178;-77
2022/01/09 15:04:08;;;;;;;10.88;3.12;;;5.70;99.90;;;;;;7174976;32;20129;-77
2022/01/09 15:08:10;;;;;;;6.35;2.80;;;5.60;99.90;;;;;;7190416;32;20114;-77
2022/01/09 15:12:13;;;;;;;14.20;9.88;;;5.20;99.90;;;;;;7192446;32;20136;-77
2022/01/09 15:16:15;;;;;;;7.37;2.67;;;5.00;99.90;;;;;;7202558;32;20132;-78
2022/01/09 15:20:17;;;;;;;10.70;2.85;;;5.00;99.90;;;;;;7190798;32;20143;-78
2022/01/09 15:24:19;;;;;;;7.65;2.83;;;4.90;99.90;;;;;;7207126;32;20478;-77
2022/01/09 15:28:23;;;;;;;8.43;4.00;;;4.80;99.90;;;;;;7199497;32;20140;-78
2022/01/09 15:32:25;;;;;;;7.28;3.78;;;4.70;99.90;;;;;;7197059;32;20180;-77
2022/01/09 15:36:27;;;;;;;10.52;4.03;;;4.60;99.90;;;;;;7189957;32;20131;-78
2022/01/09 15:40:30;;;;;;;10.45;3.70;;;4.50;99.90;;;;;;7191278;32;20740;-77
2022/01/09 15:44:43;;;;;;;9.30;4.85;;;4.40;99.90;;;;;;7178949;32;20116;-77
2022/01/09 15:48:50;;;;;;;10.70;5.18;;;4.20;99.90;;;;;;7205990;32;20179;-77
2022/01/09 15:52:52;;;;;;;7.87;5.07;;;4.10;99.90;;;;;;7173142;32;20106;-77
2022/01/09 15:56:54;;;;;;;9.75;5.40;;;4.00;99.90;;;;;;7190298;32;20225;-78
2022/01/09 16:00:55;;;;;;;13.93;5.50;;;4.10;99.90;;;;;;7191986;32;20122;-77
2022/01/09 16:04:57;;;;;;;15.77;5.43;;;4.20;99.90;;;;;;7189600;32;20220;-78
2022/01/09 16:08:59;;;;;;;14.13;5.50;;;4.20;99.90;;;;;;7190214;32;20343;-78
2022/01/09 16:13:01;;;;;;;13.20;5.05;;;4.30;99.90;;;;;;7188003;32;20271;-77
2022/01/09 16:17:05;;;;;;;13.05;5.95;;;4.40;99.90;;;;;;7201372;32;20236;-77
2022/01/09 16:21:08;;;;;;;13.38;5.47;;;4.40;99.90;;;;;;7182165;32;20476;-77
2022/01/09 16:25:10;;;;;;;18.87;4.90;;;4.50;99.90;;;;;;7193528;32;20130;-78
2022/01/09 16:29:14;;;;;;;12.98;4.40;;;4.60;99.90;;;;;;7214027;32;20141;-78
2022/01/09 16:33:16;;;;;;;18.55;6.03;;;4.60;99.90;;;;;;7203672;32;20224;-78
2022/01/09 16:37:17;;;;;;;18.52;5.70;;;4.70;99.90;;;;;;7191081;32;20133;-78
2022/01/09 16:41:20;;;;;;;18.67;6.28;;;4.80;99.90;;;;;;7206380;32;20224;-78
2022/01/09 16:45:22;;;;;;;18.40;6.62;;;4.90;99.90;;;;;;7180262;32;20537;-78
2022/01/09 16:49:24;;;;;;;28.12;12.45;;;4.90;99.90;;;;;;7201827;32;20171;-78
2022/01/09 16:53:26;;;;;;;18.92;7.45;;;4.90;99.90;;;;;;7201155;32;20153;-78
2022/01/09 16:57:28;;;;;;;16.80;4.93;;;4.80;99.90;;;;;;7187834;32;20674;-78
2022/01/09 17:01:30;;;;;;;21.67;8.48;;;4.80;99.90;;;;;;7198812;32;20214;-78
2022/01/09 17:05:31;;;;;;;14.18;5.32;;;4.80;99.90;;;;;;7193677;32;20825;-76
2022/01/09 17:09:33;;;;;;;19.87;6.20;;;4.80;99.90;;;;;;7185636;32;20167;-76
2022/01/09 17:13:36;;;;;;;17.83;5.30;;;4.80;99.90;;;;;;7192604;32;20216;-76
2022/01/09 17:17:45;;;;;;;21.67;6.82;;;4.80;99.90;;;;;;7185940;32;20136;-77
2022/01/09 17:21:46;;;;;;;15.07;4.85;;;4.90;99.90;;;;;;7205698;32;20232;-78
2022/01/09 17:25:50;;;;;;;13.50;5.35;;;4.90;99.90;;;;;;7195690;32;20117;-78
2022/01/09 17:29:51;;;;;;;17.52;4.82;;;4.80;99.90;;;;;;7185787;32;20116;-77
2022/01/09 17:33:58;;;;;;;11.18;4.57;;;4.70;99.90;;;;;;7198405;32;20696;-78
2022/01/09 17:38:00;;;;;;;18.23;4.97;;;4.70;99.90;;;;;;7191980;32;20236;-78
2022/01/09 17:42:03;;;;;;;14.52;5.30;;;4.80;99.90;;;;;;7189057;32;20113;-77
2022/01/09 17:46:04;;;;;;;14.85;4.93;;;4.70;99.90;;;;;;7199158;32;20113;-77
2022/01/09 17:50:08;;;;;;;20.30;5.55;;;4.70;99.90;;;;;;7194717;32;20117;-77
2022/01/09 17:54:10;;;;;;;15.68;5.47;;;4.70;99.90;;;;;;7201216;32;20396;-77
2022/01/09 17:58:12;;;;;;;13.93;6.12;;;4.60;99.90;;;;;;7175296;33;20183;-76
2022/01/09 18:02:14;;;;;;;14.63;4.65;;;4.60;99.90;;;;;;7186952;33;20198;-77
2022/01/09 18:06:20;;;;;;;16.87;4.57;;;4.70;99.90;;;;;;7171855;33;20247;-77
2022/01/09 18:10:22;;;;;;;12.70;4.87;;;4.70;99.90;;;;;;7186375;33;20105;-78
2022/01/09 18:14:23;;;;;;;16.12;5.62;;;4.70;99.90;;;;;;7190185;33;20483;-78
2022/01/09 18:18:25;;;;;;;13.93;4.47;;;4.50;99.90;;;;;;7190470;33;20802;-78
2022/01/09 18:22:27;;;;;;;16.17;4.62;;;4.40;99.90;;;;;;7203566;32;20133;-78
2022/01/09 18:26:29;;;;;;;13.23;4.32;;;4.50;99.90;;;;;;7186974;33;20148;-78
2022/01/09 18:30:31;;;;;;;16.15;4.87;;;4.50;99.90;;;;;;7194638;33;20630;-79
2022/01/09 18:34:32;;;;;;;18.27;4.60;;;4.50;99.90;;;;;;7195652;33;20316;-78
2022/01/09 18:38:34;;;;;;;12.65;4.18;;;4.60;99.90;;;;;;7196511;33;20121;-78
2022/01/09 18:42:36;;;;;;;15.25;4.32;;;4.50;99.90;;;;;;7201131;32;20132;-78
2022/01/09 18:46:38;;;;;;;21.02;5.18;;;4.50;99.90;;;;;;7197479;32;20157;-78
2022/01/09 18:50:40;;;;;;;12.23;3.87;;;4.40;99.90;;;;;;7196701;32;20129;-79
2022/01/09 18:54:42;;;;;;;13.88;4.45;;;4.40;99.90;;;;;;7213368;32;20164;-78
2022/01/09 18:58:45;;;;;;;15.10;4.22;;;4.30;99.90;;;;;;7195947;32;20147;-78
2022/01/09 19:02:48;;;;;;;16.90;4.30;;;4.30;99.90;;;;;;7196421;32;20155;-78
2022/01/09 19:06:50;;;;;;;13.68;4.45;;;4.20;99.90;;;;;;7197217;32;20220;-77
2022/01/09 19:10:52;;;;;;;18.90;5.20;;;4.20;99.90;;;;;;7180937;32;20113;-77
2022/01/09 19:14:54;;;;;;;18.27;4.45;;;4.20;99.90;;;;;;7182216;32;20215;-77
2022/01/09 19:18:56;;;;;;;11.55;4.32;;;4.10;99.90;;;;;;7197051;32;20229;-77
2022/01/09 19:23:01;;;;;;;13.05;4.68;;;4.00;99.90;;;;;;7195206;32;20810;-78
2022/01/09 19:27:03;;;;;;;10.93;4.50;;;3.90;99.90;;;;;;7201845;32;20554;-78
2022/01/09 19:31:05;;;;;;;13.05;4.03;;;3.80;99.90;;;;;;7190669;32;20125;-78
2022/01/09 19:35:18;;;;;;;22.25;4.70;;;3.90;99.90;;;;;;7205369;32;20114;-79
2022/01/09 19:39:20;;;;;;;13.02;4.32;;;3.90;99.90;;;;;;7209372;32;20300;-77
2022/01/09 19:43:21;;;;;;;14.05;4.50;;;3.90;99.90;;;;;;7188499;32;20118;-78
2022/01/09 19:47:24;;;;;;;16.15;3.90;;;3.80;99.90;;;;;;7202277;32;20129;-78
2022/01/09 19:51:26;;;;;;;18.75;4.72;;;3.70;99.90;;;;;;7194610;32;20593;-78
2022/01/09 19:55:28;;;;;;;12.30;4.82;;;3.70;99.90;;;;;;7202972;32;20511;-78
2022/01/09 19:59:31;;;;;;;15.48;4.45;;;3.70;99.90;;;;;;7194819;32;20210;-79
2022/01/09 20:03:33;;;;;;;20.25;5.35;;;3.50;99.90;;;;;;7193958;32;20113;-79
2022/01/09 20:07:36;;;;;;;15.13;4.53;;;3.40;99.90;;;;;;7195919;32;20152;-78
2022/01/09 20:11:38;;;;;;;12.40;4.43;;;3.30;99.90;;;;;;7187205;32;20161;-78
2022/01/09 20:15:40;;;;;;;17.98;5.90;;;3.30;99.90;;;;;;7192844;32;20270;-77
2022/01/09 20:19:42;;;;;;;13.90;4.65;;;3.00;99.90;;;;;;7192286;32;20241;-79
2022/01/09 20:23:44;;;;;;;15.20;4.85;;;2.90;99.90;;;;;;7194089;32;20140;-78
2022/01/09 20:27:46;;;;;;;14.63;4.93;;;2.80;99.90;;;;;;7191319;32;20125;-78
2022/01/09 20:31:49;;;;;;;16.40;5.12;;;2.80;99.90;;;;;;7186058;32;20819;-78
2022/01/09 20:35:56;;;;;;;14.27;5.60;;;2.70;99.90;;;;;;7200581;32;20105;-77
2022/01/09 20:39:57;;;;;;;19.25;6.12;;;2.80;99.90;;;;;;7195888;32;20224;-78
2022/01/09 20:44:00;;;;;;;16.95;6.03;;;2.80;99.90;;;;;;7183312;32;20117;-77
2022/01/09 20:48:02;;;;;;;15.52;6.12;;;2.80;99.90;;;;;;7189815;32;20192;-79
2022/01/09 20:52:04;;;;;;;14.43;5.97;;;2.70;99.90;;;;;;7191699;32;20180;-78
2022/01/09 20:56:07;;;;;;;21.48;6.65;;;2.50;99.90;;;;;;7187949;32;20185;-78
2022/01/09 21:00:10;;;;;;;14.10;7.10;;;2.50;99.90;;;;;;7192584;32;20197;-77
2022/01/09 21:04:12;;;;;;;14.73;6.18;;;2.40;99.90;;;;;;7207423;32;20149;-77
2022/01/09 21:08:14;;;;;;;17.45;6.62;;;2.30;99.90;;;;;;7185944;32;20147;-78
2022/01/09 21:12:16;;;;;;;16.30;5.93;;;2.20;99.90;;;;;;7176512;32;20133;-77
2022/01/09 21:16:19;;;;;;;11.88;6.35;;;2.00;99.90;;;;;;7186497;32;20121;-78
2022/01/09 21:20:23;;;;;;;12.13;6.32;;;1.80;99.90;;;;;;7188122;32;20114;-78